Time;durP1;ratioP1;P1;durP2;ratioP2;P2;SDS_P1;SDS_P2;PMS_P1;PMS_P2;Temp;Humidity;BMP_temperature;BMP_pressure;BME280_temperature;BME280_humidity;BME280_pressure;Samples;Min_cycle;Max_cycle;Signal;HPM_P1;HPM_P2
2023/09/22 00:01:23;;;;;;;0.10;0.10;;;;;;;;;;5128639;28;20107;-56
2023/09/22 00:03:48;;;;;;;0.10;0.10;;;;;;;;;;5128899;28;20367;-56
2023/09/22 00:06:15;;;;;;;0.10;0.10;;;;;;;;;;5129304;28;20055;-56
2023/09/22 00:08:41;;;;;;;0.10;0.10;;;;;;;;;;5128785;27;20107;-56
2023/09/22 00:11:07;;;;;;;0.10;0.10;;;;;;;;;;5128470;28;20051;-56
2023/09/22 00:13:33;;;;;;;0.10;0.10;;;;;;;;;;5127668;28;20051;-56
2023/09/22 00:15:58;;;;;;;0.10;0.10;;;;;;;;;;5128797;28;20092;-56
2023/09/22 00:18:24;;;;;;;0.10;0.10;;;;;;;;;;5119149;27;20040;-56
2023/09/22 00:20:50;;;;;;;0.10;0.10;;;;;;;;;;5108017;28;20088;-56
2023/09/22 00:23:15;;;;;;;0.10;0.10;;;;;;;;;;5127202;28;20058;-56
2023/09/22 00:25:41;;;;;;;0.10;0.10;;;;;;;;;;5128597;28;20053;-56
2023/09/22 00:28:07;;;;;;;0.10;0.10;;;;;;;;;;5127346;27;20297;-57
2023/09/22 00:30:33;;;;;;;0.10;0.10;;;;;;;;;;5128230;28;20035;-56
2023/09/22 00:32:59;;;;;;;0.10;0.10;;;;;;;;;;5127415;28;20132;-56
2023/09/22 00:35:25;;;;;;;0.10;0.10;;;;;;;;;;5127905;28;20096;-56
2023/09/22 00:37:51;;;;;;;0.10;0.10;;;;;;;;;;5127555;27;20079;-56
2023/09/22 00:40:17;;;;;;;0.10;0.10;;;;;;;;;;5127991;28;20039;-57
2023/09/22 00:42:42;;;;;;;0.40;0.40;;;;;;;;;;5127383;27;20100;-56
2023/09/22 00:45:08;;;;;;;0.10;0.10;;;;;;;;;;5127967;27;20043;-56
2023/09/22 00:47:34;;;;;;;0.10;0.10;;;;;;;;;;5129426;27;20273;-56
2023/09/22 00:50:00;;;;;;;0.10;0.10;;;;;;;;;;5128694;28;20097;-58
2023/09/22 00:52:27;;;;;;;0.10;0.10;;;;;;;;;;5110454;28;20043;-58
2023/09/22 00:54:53;;;;;;;0.10;0.10;;;;;;;;;;5107309;28;20047;-56
2023/09/22 00:57:19;;;;;;;0.10;0.10;;;;;;;;;;5108779;27;20039;-56
2023/09/22 00:59:46;;;;;;;0.10;0.10;;;;;;;;;;5126963;27;20506;-56
2023/09/22 01:02:11;;;;;;;0.10;0.10;;;;;;;;;;5127376;28;20074;-56
2023/09/22 01:04:37;;;;;;;0.10;0.10;;;;;;;;;;5127756;28;20235;-56
2023/09/22 01:07:03;;;;;;;0.10;0.10;;;;;;;;;;5127660;28;20054;-56
2023/09/22 01:09:29;;;;;;;0.10;0.10;;;;;;;;;;5127548;27;20043;-56
2023/09/22 01:11:55;;;;;;;0.10;0.10;;;;;;;;;;5127754;28;20184;-56
2023/09/22 01:14:21;;;;;;;0.10;0.10;;;;;;;;;;5127644;28;20101;-56
2023/09/22 01:16:47;;;;;;;0.10;0.10;;;;;;;;;;5128205;28;20082;-56
2023/09/22 01:19:16;;;;;;;0.10;0.10;;;;;;;;;;5127745;27;20055;-56
2023/09/22 01:21:43;;;;;;;0.10;0.10;;;;;;;;;;5128198;28;20074;-56
2023/09/22 01:24:10;;;;;;;0.10;0.10;;;;;;;;;;5128101;28;20133;-56
2023/09/22 01:26:36;;;;;;;0.10;0.10;;;;;;;;;;5127939;28;20408;-56
2023/09/22 01:29:02;;;;;;;0.10;0.10;;;;;;;;;;5126990;27;20539;-56
2023/09/22 01:31:28;;;;;;;0.10;0.10;;;;;;;;;;5127472;28;20050;-56
2023/09/22 01:33:54;;;;;;;0.10;0.10;;;;;;;;;;5127651;28;20047;-57
2023/09/22 01:36:20;;;;;;;0.10;0.10;;;;;;;;;;5127578;28;20297;-56
2023/09/22 01:38:46;;;;;;;0.10;0.10;;;;;;;;;;5125328;27;20108;-56
2023/09/22 01:41:12;;;;;;;0.10;0.10;;;;;;;;;;5126506;28;20039;-56
2023/09/22 01:43:38;;;;;;;0.10;0.10;;;;;;;;;;5126459;28;20059;-56
2023/09/22 01:46:04;;;;;;;0.10;0.10;;;;;;;;;;5126149;28;20107;-56
2023/09/22 01:48:30;;;;;;;0.10;0.10;;;;;;;;;;5127282;27;20142;-56
2023/09/22 01:50:59;;;;;;;0.10;0.10;;;;;;;;;;5126812;28;20047;-56
2023/09/22 01:53:25;;;;;;;0.10;0.10;;;;;;;;;;5126124;28;20054;-56
2023/09/22 01:55:51;;;;;;;0.10;0.10;;;;;;;;;;5126745;28;20047;-56
2023/09/22 01:58:16;;;;;;;0.10;0.10;;;;;;;;;;5125260;27;20844;-56
2023/09/22 02:00:42;;;;;;;0.17;0.17;;;;;;;;;;5126565;28;20508;-56
2023/09/22 02:03:08;;;;;;;0.10;0.10;;;;;;;;;;5126271;28;20456;-56
2023/09/22 02:05:34;;;;;;;0.10;0.10;;;;;;;;;;5127122;28;20058;-56
2023/09/22 02:08:01;;;;;;;0.10;0.10;;;;;;;;;;5131584;27;20410;-56
2023/09/22 02:10:26;;;;;;;0.10;0.10;;;;;;;;;;5147077;27;20450;-56
2023/09/22 02:12:52;;;;;;;0.10;0.10;;;;;;;;;;5147079;27;20475;-56
2023/09/22 02:15:18;;;;;;;0.10;0.10;;;;;;;;;;5147325;27;20047;-56
2023/09/22 02:17:44;;;;;;;0.10;0.10;;;;;;;;;;5143485;27;20054;-56
2023/09/22 02:20:18;;;;;;;0.10;0.10;;;;;;;;;;5126553;28;20043;-56
2023/09/22 02:22:45;;;;;;;0.10;0.10;;;;;;;;;;5125933;28;20491;-56
2023/09/22 02:25:12;;;;;;;0.10;0.10;;;;;;;;;;5127238;28;20100;-56
2023/09/22 02:27:37;;;;;;;0.10;0.10;;;;;;;;;;5126439;27;20484;-56
2023/09/22 02:30:03;;;;;;;0.10;0.10;;;;;;;;;;5126675;28;20047;-56
2023/09/22 02:32:29;;;;;;;0.10;0.10;;;;;;;;;;5126562;28;20074;-56
2023/09/22 02:34:55;;;;;;;0.10;0.10;;;;;;;;;;5126819;28;20043;-56
2023/09/22 02:37:21;;;;;;;0.10;0.10;;;;;;;;;;5126629;28;20371;-56
2023/09/22 02:39:46;;;;;;;0.10;0.10;;;;;;;;;;5133720;27;20043;-57
2023/09/22 02:42:13;;;;;;;0.10;0.10;;;;;;;;;;5125778;28;20038;-56
2023/09/22 02:44:39;;;;;;;0.10;0.10;;;;;;;;;;5126733;28;20082;-56
2023/09/22 02:47:05;;;;;;;0.10;0.10;;;;;;;;;;5126786;28;20142;-56
2023/09/22 02:49:31;;;;;;;0.10;0.10;;;;;;;;;;5126435;27;20051;-56
2023/09/22 02:51:57;;;;;;;0.10;0.10;;;;;;;;;;5113945;28;20052;-56
2023/09/22 02:54:23;;;;;;;0.10;0.10;;;;;;;;;;5105159;28;20054;-56
2023/09/22 02:56:49;;;;;;;0.10;0.10;;;;;;;;;;5105877;28;20048;-56
2023/09/22 02:59:15;;;;;;;0.10;0.10;;;;;;;;;;5120657;27;20559;-43
2023/09/22 03:01:41;;;;;;;0.10;0.10;;;;;;;;;;5126358;28;20131;-42
2023/09/22 03:04:09;;;;;;;0.10;0.10;;;;;;;;;;5125067;28;20047;-42
2023/09/22 03:06:35;;;;;;;0.00;0.00;;;;;;;;;;5125982;28;20058;-42
2023/09/22 03:09:01;;;;;;;0.10;0.10;;;;;;;;;;5125153;27;20197;-42
2023/09/22 03:11:26;;;;;;;0.10;0.10;;;;;;;;;;5125428;28;20047;-42
2023/09/22 03:13:52;;;;;;;0.10;0.10;;;;;;;;;;5125944;28;20047;-44
2023/09/22 03:16:18;;;;;;;0.10;0.10;;;;;;;;;;5125694;28;20044;-42
2023/09/22 03:18:44;;;;;;;0.10;0.10;;;;;;;;;;5124882;27;20514;-43
2023/09/22 03:21:10;;;;;;;0.10;0.10;;;;;;;;;;5123061;28;20495;-43
2023/09/22 03:23:35;;;;;;;0.10;0.10;;;;;;;;;;5106901;28;20055;-42
2023/09/22 03:26:03;;;;;;;0.10;0.10;;;;;;;;;;5109216;28;20047;-43
2023/09/22 03:28:28;;;;;;;0.10;0.10;;;;;;;;;;5117829;27;20051;-43
2023/09/22 03:30:54;;;;;;;0.10;0.10;;;;;;;;;;5129785;28;20043;-43
2023/09/22 03:33:19;;;;;;;0.10;0.10;;;;;;;;;;5128442;28;20104;-42
2023/09/22 03:35:46;;;;;;;0.10;0.10;;;;;;;;;;5129005;28;20055;-44
2023/09/22 03:38:15;;;;;;;0.10;0.10;;;;;;;;;;5127990;27;20055;-44
2023/09/22 03:40:41;;;;;;;0.10;0.10;;;;;;;;;;5128785;28;20075;-42
2023/09/22 03:43:07;;;;;;;0.10;0.10;;;;;;;;;;5128730;27;20834;-42
2023/09/22 03:45:33;;;;;;;0.10;0.10;;;;;;;;;;5129163;28;20043;-44
2023/09/22 03:47:59;;;;;;;0.10;0.10;;;;;;;;;;5127660;27;20448;-43
2023/09/22 03:50:24;;;;;;;0.10;0.10;;;;;;;;;;5128667;28;20047;-43
2023/09/22 03:52:50;;;;;;;0.10;0.10;;;;;;;;;;5127729;28;20453;-43
2023/09/22 03:55:16;;;;;;;0.10;0.10;;;;;;;;;;5128748;28;20082;-43
2023/09/22 03:57:41;;;;;;;0.10;0.10;;;;;;;;;;5128424;27;20096;-42
2023/09/22 04:00:17;;;;;;;0.10;0.10;;;;;;;;;;5128453;27;20084;-42
2023/09/22 04:02:42;;;;;;;0.10;0.10;;;;;;;;;;5128567;28;20078;-43
2023/09/22 04:05:08;;;;;;;0.10;0.10;;;;;;;;;;5128807;28;20035;-43
2023/09/22 04:07:35;;;;;;;0.10;0.10;;;;;;;;;;5128305;27;20134;-44
2023/09/22 04:10:02;;;;;;;0.10;0.10;;;;;;;;;;5128893;27;20087;-42
2023/09/22 04:12:27;;;;;;;0.10;0.10;;;;;;;;;;5129031;28;20506;-46
2023/09/22 04:14:53;;;;;;;0.10;0.10;;;;;;;;;;5128158;28;20051;-42
2023/09/22 04:17:19;;;;;;;0.10;0.10;;;;;;;;;;5129178;28;20054;-44
2023/09/22 04:19:45;;;;;;;0.10;0.10;;;;;;;;;;5128648;27;20088;-42
2023/09/22 04:22:12;;;;;;;0.10;0.10;;;;;;;;;;5128505;28;20047;-43
2023/09/22 04:24:46;;;;;;;0.10;0.10;;;;;;;;;;5127596;28;20047;-43
2023/09/22 04:27:14;;;;;;;0.10;0.10;;;;;;;;;;5127853;28;20055;-42
2023/09/22 04:29:39;;;;;;;0.10;0.10;;;;;;;;;;5142076;27;20091;-42
2023/09/22 04:32:05;;;;;;;0.10;0.10;;;;;;;;;;5148728;27;20111;-43
2023/09/22 04:34:32;;;;;;;0.10;0.10;;;;;;;;;;5147616;27;20506;-45
2023/09/22 04:36:58;;;;;;;0.10;0.10;;;;;;;;;;5148254;27;20046;-43
2023/09/22 04:39:23;;;;;;;0.10;0.10;;;;;;;;;;5130352;27;20516;-42
2023/09/22 04:41:49;;;;;;;0.10;0.10;;;;;;;;;;5127489;27;20492;-44
2023/09/22 04:44:15;;;;;;;0.10;0.10;;;;;;;;;;5127158;28;20416;-41
2023/09/22 04:46:41;;;;;;;0.10;0.10;;;;;;;;;;5127749;28;20313;-43
2023/09/22 04:49:09;;;;;;;0.10;0.10;;;;;;;;;;5126108;27;20058;-43
2023/09/22 04:51:35;;;;;;;0.10;0.10;;;;;;;;;;5127837;28;20134;-43
2023/09/22 04:54:02;;;;;;;0.10;0.10;;;;;;;;;;5143140;27;20509;-43
2023/09/22 04:56:28;;;;;;;0.10;0.10;;;;;;;;;;5147283;27;20611;-42
2023/09/22 04:58:56;;;;;;;0.20;0.20;;;;;;;;;;5133118;27;20134;-43
2023/09/22 05:01:24;;;;;;;0.10;0.10;;;;;;;;;;5126873;28;20514;-44
2023/09/22 05:03:50;;;;;;;0.10;0.10;;;;;;;;;;5126337;28;20483;-45
2023/09/22 05:06:16;;;;;;;0.10;0.10;;;;;;;;;;5126448;28;20047;-43
2023/09/22 05:08:42;;;;;;;0.10;0.10;;;;;;;;;;5130208;27;20050;-43
2023/09/22 05:11:08;;;;;;;0.10;0.10;;;;;;;;;;5148916;27;20050;-43
2023/09/22 05:13:35;;;;;;;0.10;0.10;;;;;;;;;;5148117;27;20043;-43
2023/09/22 05:16:09;;;;;;;0.10;0.10;;;;;;;;;;5147716;27;20074;-47
2023/09/22 05:18:36;;;;;;;0.10;0.10;;;;;;;;;;5134712;27;20035;-42
2023/09/22 05:21:02;;;;;;;0.10;0.10;;;;;;;;;;5146036;27;20054;-44
2023/09/22 05:23:29;;;;;;;0.10;0.10;;;;;;;;;;5125815;28;20054;-42
2023/09/22 05:25:55;;;;;;;0.10;0.10;;;;;;;;;;5125884;28;20132;-43
2023/09/22 05:28:20;;;;;;;0.10;0.10;;;;;;;;;;5125012;27;20055;-42
2023/09/22 05:30:46;;;;;;;0.10;0.10;;;;;;;;;;5124661;28;20091;-42
2023/09/22 05:33:12;;;;;;;0.10;0.10;;;;;;;;;;5120711;28;20243;-44
2023/09/22 05:35:37;;;;;;;0.10;0.10;;;;;;;;;;5117456;28;20086;-42
2023/09/22 05:38:03;;;;;;;0.10;0.10;;;;;;;;;;5125813;27;20426;-43
2023/09/22 05:40:29;;;;;;;0.10;0.10;;;;;;;;;;5115804;27;20048;-43
2023/09/22 05:42:55;;;;;;;0.10;0.10;;;;;;;;;;5134593;27;20054;-43
2023/09/22 05:45:20;;;;;;;0.10;0.10;;;;;;;;;;5124545;27;20070;-42
2023/09/22 05:47:46;;;;;;;0.10;0.10;;;;;;;;;;5126055;27;20055;-42
2023/09/22 05:50:12;;;;;;;0.10;0.10;;;;;;;;;;5133388;27;20327;-44
2023/09/22 05:52:38;;;;;;;0.10;0.10;;;;;;;;;;5122563;28;20059;-42
2023/09/22 05:55:08;;;;;;;0.10;0.10;;;;;;;;;;5123192;28;20125;-43
2023/09/22 05:57:34;;;;;;;0.10;0.10;;;;;;;;;;5114556;27;20498;-44
2023/09/22 06:00:00;;;;;;;0.10;0.10;;;;;;;;;;5103630;27;20479;-45
2023/09/22 06:02:26;;;;;;;0.10;0.10;;;;;;;;;;5099575;28;20552;-44
2023/09/22 06:04:52;;;;;;;0.10;0.10;;;;;;;;;;5097856;28;20048;-42
2023/09/22 06:07:20;;;;;;;0.10;0.10;;;;;;;;;;5104329;28;20055;-42
2023/09/22 06:09:45;;;;;;;0.10;0.10;;;;;;;;;;5124072;27;20047;-45
2023/09/22 06:12:11;;;;;;;0.10;0.10;;;;;;;;;;5115103;28;20401;-42
2023/09/22 06:14:38;;;;;;;0.10;0.10;;;;;;;;;;5114202;28;20067;-43
2023/09/22 06:17:04;;;;;;;0.10;0.10;;;;;;;;;;5115316;28;20411;-43
2023/09/22 06:19:30;;;;;;;0.10;0.10;;;;;;;;;;5117831;27;20079;-43
2023/09/22 06:21:55;;;;;;;0.10;0.10;;;;;;;;;;5116359;28;20506;-44
2023/09/22 06:24:21;;;;;;;0.10;0.10;;;;;;;;;;5113514;27;20042;-43
2023/09/22 06:26:46;;;;;;;0.10;0.10;;;;;;;;;;5109756;28;20059;-43
2023/09/22 06:29:12;;;;;;;0.10;0.10;;;;;;;;;;5118328;27;20047;-44
2023/09/22 06:31:38;;;;;;;0.10;0.10;;;;;;;;;;5118048;28;20059;-43
2023/09/22 06:34:05;;;;;;;0.10;0.10;;;;;;;;;;5115748;27;20086;-43
2023/09/22 06:36:30;;;;;;;0.10;0.10;;;;;;;;;;5114805;28;20058;-46
2023/09/22 06:38:56;;;;;;;0.10;0.10;;;;;;;;;;5117397;27;20237;-43
2023/09/22 06:41:21;;;;;;;0.10;0.10;;;;;;;;;;5108945;28;20096;-45
2023/09/22 06:43:47;;;;;;;0.10;0.10;;;;;;;;;;5115895;27;20074;-45
2023/09/22 06:46:24;;;;;;;0.10;0.10;;;;;;;;;;5114407;28;20043;-43
2023/09/22 06:48:50;;;;;;;0.10;0.10;;;;;;;;;;5112692;27;20088;-42
2023/09/22 06:51:18;;;;;;;0.10;0.10;;;;;;;;;;5110750;27;20126;-44
2023/09/22 06:53:44;;;;;;;0.10;0.10;;;;;;;;;;5111419;27;20973;-42
2023/09/22 06:56:10;;;;;;;0.10;0.10;;;;;;;;;;5104261;27;20074;-45
2023/09/22 06:58:37;;;;;;;0.10;0.10;;;;;;;;;;5117373;27;20031;-43
2023/09/22 07:01:07;;;;;;;0.10;0.10;;;;;;;;;;5109934;27;20105;-43
2023/09/22 07:03:33;;;;;;;0.10;0.10;;;;;;;;;;5096530;27;20061;-43
2023/09/22 07:05:59;;;;;;;0.10;0.10;;;;;;;;;;5097197;27;20051;-42
2023/09/22 07:08:25;;;;;;;0.10;0.10;;;;;;;;;;5097618;27;20050;-43
2023/09/22 07:10:54;;;;;;;0.10;0.10;;;;;;;;;;5094667;27;21125;-43
2023/09/22 07:13:19;;;;;;;0.10;0.10;;;;;;;;;;5112125;28;20043;-43
2023/09/22 07:15:45;;;;;;;0.10;0.10;;;;;;;;;;5107968;28;20047;-42
2023/09/22 07:18:11;;;;;;;0.10;0.10;;;;;;;;;;5108767;27;20058;-44
2023/09/22 07:20:37;;;;;;;0.10;0.10;;;;;;;;;;5123742;27;20506;-43
2023/09/22 07:23:03;;;;;;;0.10;0.10;;;;;;;;;;5115259;27;20051;-42
2023/09/22 07:25:28;;;;;;;0.10;0.10;;;;;;;;;;5116341;27;20070;-42
2023/09/22 07:27:54;;;;;;;0.10;0.10;;;;;;;;;;5118539;27;20190;-44
2023/09/22 07:30:19;;;;;;;0.20;0.20;;;;;;;;;;5119662;27;20482;-43
2023/09/22 07:32:45;;;;;;;0.10;0.10;;;;;;;;;;5114673;27;20075;-42
2023/09/22 07:35:11;;;;;;;0.10;0.10;;;;;;;;;;5112914;27;20051;-44
2023/09/22 07:37:36;;;;;;;0.10;0.10;;;;;;;;;;5116147;27;20045;-42
2023/09/22 07:40:08;;;;;;;0.10;0.10;;;;;;;;;;5116619;27;20429;-42
2023/09/22 07:42:34;;;;;;;0.10;0.10;;;;;;;;;;5121847;27;20487;-42
2023/09/22 07:44:59;;;;;;;0.10;0.10;;;;;;;;;;5115049;27;20054;-43
2023/09/22 07:47:25;;;;;;;0.10;0.10;;;;;;;;;;5111989;27;20577;-44
2023/09/22 07:49:54;;;;;;;0.10;0.10;;;;;;;;;;5112714;27;20407;-43
2023/09/22 07:52:20;;;;;;;;;;;;;;;;;;5121948;27;20070;-42
2023/09/22 07:54:45;;;;;;;0.10;0.10;;;;;;;;;;5121911;27;19954;-43
2023/09/22 07:57:13;;;;;;;0.10;0.10;;;;;;;;;;5113456;27;20101;-43
2023/09/22 07:59:38;;;;;;;0.10;0.10;;;;;;;;;;5110617;27;20058;-42
2023/09/22 08:02:05;;;;;;;0.10;0.10;;;;;;;;;;5114109;28;20399;-42
2023/09/22 08:04:30;;;;;;;0.10;0.10;;;;;;;;;;5113844;27;20050;-43
2023/09/22 08:06:59;;;;;;;0.10;0.10;;;;;;;;;;5098446;27;20046;-42
2023/09/22 08:09:25;;;;;;;0.10;0.10;;;;;;;;;;5104828;27;20051;-44
2023/09/22 08:11:50;;;;;;;0.10;0.10;;;;;;;;;;5113556;28;20062;-44
2023/09/22 08:14:17;;;;;;;0.10;0.10;;;;;;;;;;5112834;27;20055;-43
2023/09/22 08:16:43;;;;;;;0.10;0.10;;;;;;;;;;5107540;27;20058;-44
2023/09/22 08:19:11;;;;;;;0.10;0.10;;;;;;;;;;5112307;27;20138;-42
2023/09/22 08:21:38;;;;;;;0.10;0.10;;;;;;;;;;5118936;27;20047;-46
2023/09/22 08:24:04;;;;;;;0.10;0.10;;;;;;;;;;5110074;28;20275;-44
2023/09/22 08:26:31;;;;;;;0.10;0.10;;;;;;;;;;5106697;28;20085;-44
2023/09/22 08:28:56;;;;;;;0.10;0.10;;;;;;;;;;5104717;27;20539;-43
2023/09/22 08:31:22;;;;;;;0.10;0.10;;;;;;;;;;5110734;28;20381;-42
2023/09/22 08:33:47;;;;;;;0.10;0.10;;;;;;;;;;5103327;28;20043;-43
2023/09/22 08:36:15;;;;;;;0.10;0.10;;;;;;;;;;5102193;27;20082;-43
2023/09/22 08:38:40;;;;;;;0.10;0.10;;;;;;;;;;5105555;27;20047;-42
2023/09/22 08:41:06;;;;;;;0.10;0.10;;;;;;;;;;5101621;27;20146;-42
2023/09/22 08:43:33;;;;;;;0.10;0.10;;;;;;;;;;5104684;27;20515;-42
2023/09/22 08:46:00;;;;;;;0.10;0.10;;;;;;;;;;5110495;28;20483;-44
2023/09/22 08:48:27;;;;;;;0.10;0.10;;;;;;;;;;5112095;27;20039;-44
2023/09/22 08:50:53;;;;;;;0.22;0.10;;;;;;;;;;5109287;27;20051;-43
2023/09/22 08:53:19;;;;;;;0.10;0.10;;;;;;;;;;5117254;27;20108;-43
2023/09/22 08:55:44;;;;;;;0.10;0.10;;;;;;;;;;5114636;27;20096;-44
2023/09/22 08:58:10;;;;;;;0.10;0.10;;;;;;;;;;5118244;27;20051;-44
2023/09/22 09:00:35;;;;;;;0.10;0.10;;;;;;;;;;5117515;27;20059;-45
2023/09/22 09:03:09;;;;;;;0.10;0.10;;;;;;;;;;5119492;27;20055;-45
2023/09/22 09:05:36;;;;;;;0.10;0.10;;;;;;;;;;5114571;27;20092;-43
2023/09/22 09:08:18;;;;;;;0.20;0.20;;;;;;;;;;5120161;27;20050;-43
2023/09/22 09:10:46;;;;;;;0.10;0.10;;;;;;;;;;5108269;27;20282;-44
2023/09/22 09:13:14;;;;;;;0.10;0.10;;;;;;;;;;5107318;28;20083;-43
2023/09/22 09:15:43;;;;;;;;;;;;;;;;;;5122108;28;20065;-43
2023/09/22 09:18:11;;;;;;;0.10;0.10;;;;;;;;;;5126329;27;19934;-42
2023/09/22 09:20:40;;;;;;;0.10;0.10;;;;;;;;;;5120325;27;20133;-43
2023/09/22 09:23:21;;;;;;;0.10;0.10;;;;;;;;;;5117079;27;20050;-43
2023/09/22 09:25:49;;;;;;;0.10;0.10;;;;;;;;;;5110540;28;20543;-42
2023/09/22 09:28:16;;;;;;;0.10;0.10;;;;;;;;;;5114629;27;20078;-43
2023/09/22 09:30:52;;;;;;;0.10;0.10;;;;;;;;;;5106331;27;20051;-42
2023/09/22 09:33:20;;;;;;;0.10;0.10;;;;;;;;;;5108113;27;20123;-42
2023/09/22 09:35:46;;;;;;;0.10;0.10;;;;;;;;;;5099655;27;20146;-43
2023/09/22 09:38:17;;;;;;;0.10;0.10;;;;;;;;;;5097313;27;20135;-42
2023/09/22 09:40:43;;;;;;;0.10;0.10;;;;;;;;;;5099650;27;20051;-43
2023/09/22 09:43:10;;;;;;;0.10;0.10;;;;;;;;;;5098431;27;20075;-42
2023/09/22 09:45:40;;;;;;;0.10;0.10;;;;;;;;;;5104953;28;20480;-43
2023/09/22 09:48:09;;;;;;;0.10;0.10;;;;;;;;;;5106976;27;20092;-51
2023/09/22 09:50:35;;;;;;;0.10;0.10;;;;;;;;;;5101788;27;20158;-42
2023/09/22 09:53:06;;;;;;;0.10;0.10;;;;;;;;;;5112577;28;20277;-43
2023/09/22 09:55:32;;;;;;;0.10;0.10;;;;;;;;;;5093998;27;20050;-44
2023/09/22 09:57:59;;;;;;;0.10;0.10;;;;;;;;;;5106530;27;20373;-42
2023/09/22 10:00:26;;;;;;;0.10;0.10;;;;;;;;;;5106337;27;20042;-45
2023/09/22 10:02:52;;;;;;;0.10;0.10;;;;;;;;;;5105465;27;22535;-43
2023/09/22 10:05:19;;;;;;;0.10;0.10;;;;;;;;;;5110929;27;20063;-43
2023/09/22 10:07:48;;;;;;;0.10;0.10;;;;;;;;;;5112042;27;20423;-46
2023/09/22 10:10:15;;;;;;;0.10;0.10;;;;;;;;;;5115582;27;20435;-43
2023/09/22 10:12:42;;;;;;;0.10;0.10;;;;;;;;;;5094795;28;20054;-47
2023/09/22 10:15:08;;;;;;;0.10;0.10;;;;;;;;;;5111609;27;20047;-44
2023/09/22 10:17:34;;;;;;;0.10;0.10;;;;;;;;;;5107314;27;20437;-42
2023/09/22 10:20:01;;;;;;;0.10;0.10;;;;;;;;;;5113167;27;20054;-43
2023/09/22 10:22:29;;;;;;;0.10;0.10;;;;;;;;;;5113895;27;20036;-42
2023/09/22 10:25:18;;;;;;;0.10;0.10;;;;;;;;;;5119427;28;20150;-43
2023/09/22 10:27:59;;;;;;;0.10;0.10;;;;;;;;;;5100588;27;20563;-43
2023/09/22 10:35:57;;;;;;;0.10;0.10;;;;;;;;;;5153072;27;20461;-42
2023/09/22 10:38:22;;;;;;;0.10;0.10;;;;;;;;;;5123812;27;20530;-43
2023/09/22 10:41:04;;;;;;;0.10;0.10;;;;;;;;;;5097451;27;20052;-42
2023/09/22 10:43:30;;;;;;;0.10;0.10;;;;;;;;;;5109989;27;20090;-42
2023/09/22 10:45:56;;;;;;;0.10;0.10;;;;;;;;;;5112524;27;20039;-44
2023/09/22 10:48:22;;;;;;;0.10;0.10;;;;;;;;;;5112443;27;20131;-43
2023/09/22 10:50:48;;;;;;;0.10;0.10;;;;;;;;;;5120199;27;20126;-44
2023/09/22 10:53:14;;;;;;;0.10;0.10;;;;;;;;;;5124288;27;20058;-44
2023/09/22 10:55:40;;;;;;;0.10;0.10;;;;;;;;;;5118049;27;20110;-44
2023/09/22 10:58:08;;;;;;;0.10;0.10;;;;;;;;;;5130448;27;20075;-43
2023/09/22 11:00:36;;;;;;;0.20;0.20;;;;;;;;;;5138496;27;20128;-44
2023/09/22 11:03:03;;;;;;;0.10;0.10;;;;;;;;;;5130686;27;20035;-43
2023/09/22 11:05:29;;;;;;;0.10;0.10;;;;;;;;;;5130855;27;20054;-43
2023/09/22 11:07:55;;;;;;;0.10;0.10;;;;;;;;;;5126391;27;20302;-43
2023/09/22 11:10:21;;;;;;;0.10;0.10;;;;;;;;;;5130175;27;20074;-42
2023/09/22 11:12:48;;;;;;;0.10;0.10;;;;;;;;;;5124745;27;20085;-43
2023/09/22 11:15:14;;;;;;;0.10;0.10;;;;;;;;;;5135765;27;20055;-42
2023/09/22 11:17:46;;;;;;;0.10;0.10;;;;;;;;;;5114935;27;20066;-44
2023/09/22 11:20:22;;;;;;;0.10;0.10;;;;;;;;;;5125523;27;20433;-45
2023/09/22 11:22:48;;;;;;;0.10;0.10;;;;;;;;;;5118286;27;20454;-43
2023/09/22 11:25:14;;;;;;;0.20;0.20;;;;;;;;;;5119764;27;20275;-42
2023/09/22 11:27:41;;;;;;;0.10;0.10;;;;;;;;;;5130383;27;20555;-44
2023/09/22 11:30:13;;;;;;;0.10;0.10;;;;;;;;;;5131493;27;20103;-44
2023/09/22 11:32:39;;;;;;;0.10;0.10;;;;;;;;;;5131000;27;20776;-42
2023/09/22 11:35:05;;;;;;;0.10;0.10;;;;;;;;;;5128964;27;20134;-42
2023/09/22 11:37:51;;;;;;;0.10;0.10;;;;;;;;;;5132589;27;20055;-42
2023/09/22 11:40:17;;;;;;;0.10;0.10;;;;;;;;;;5134012;27;20125;-41
2023/09/22 11:42:46;;;;;;;0.10;0.10;;;;;;;;;;5131214;27;20039;-42
2023/09/22 11:45:18;;;;;;;0.10;0.10;;;;;;;;;;5117817;27;20417;-45
2023/09/22 11:47:43;;;;;;;0.10;0.10;;;;;;;;;;5115157;28;20814;-43
2023/09/22 11:50:19;;;;;;;0.10;0.10;;;;;;;;;;5113991;28;20055;-44
2023/09/22 11:52:44;;;;;;;0.10;0.10;;;;;;;;;;5104242;27;20059;-43
2023/09/22 11:55:10;;;;;;;0.10;0.10;;;;;;;;;;5112905;28;20432;-43
2023/09/22 11:57:36;;;;;;;0.10;0.10;;;;;;;;;;5114584;28;20331;-43
2023/09/22 12:00:07;;;;;;;0.10;0.10;;;;;;;;;;5124439;28;20108;-42
2023/09/22 12:02:32;;;;;;;0.10;0.10;;;;;;;;;;5125791;28;20554;-42
2023/09/22 12:04:58;;;;;;;0.10;0.10;;;;;;;;;;5123866;28;20051;-41
2023/09/22 12:07:24;;;;;;;0.20;0.20;;;;;;;;;;5119760;28;20499;-44
2023/09/22 12:09:50;;;;;;;0.10;0.10;;;;;;;;;;5126087;28;20127;-43
2023/09/22 12:12:16;;;;;;;0.10;0.10;;;;;;;;;;5127747;28;20424;-42
2023/09/22 12:14:41;;;;;;;0.25;0.25;;;;;;;;;;5126987;28;20050;-44
2023/09/22 12:17:07;;;;;;;0.10;0.10;;;;;;;;;;5125861;28;20054;-42
2023/09/22 12:19:33;;;;;;;0.10;0.10;;;;;;;;;;5124163;27;20054;-42
2023/09/22 12:21:59;;;;;;;0.10;0.10;;;;;;;;;;5119707;27;20511;-43
2023/09/22 12:24:24;;;;;;;0.10;0.10;;;;;;;;;;5122503;28;20078;-42
2023/09/22 12:26:50;;;;;;;0.10;0.10;;;;;;;;;;5126766;27;20045;-44
2023/09/22 12:29:16;;;;;;;0.10;0.10;;;;;;;;;;5108585;27;20063;-42
2023/09/22 12:31:43;;;;;;;0.10;0.10;;;;;;;;;;5121016;28;20046;-42
2023/09/22 12:34:08;;;;;;;0.10;0.10;;;;;;;;;;5127224;27;20556;-44
2023/09/22 12:36:34;;;;;;;0.10;0.10;;;;;;;;;;5124936;27;20055;-42
2023/09/22 12:38:59;;;;;;;0.10;0.10;;;;;;;;;;5113635;27;20100;-43
2023/09/22 12:41:25;;;;;;;0.10;0.10;;;;;;;;;;5120427;28;20039;-42
2023/09/22 12:43:50;;;;;;;0.10;0.10;;;;;;;;;;5107541;28;20450;-42
2023/09/22 12:46:16;;;;;;;0.10;0.10;;;;;;;;;;5107800;28;20056;-43
2023/09/22 12:48:42;;;;;;;0.10;0.10;;;;;;;;;;5116739;28;20047;-42
2023/09/22 12:51:11;;;;;;;0.10;0.10;;;;;;;;;;5127728;28;20104;-43
2023/09/22 12:53:36;;;;;;;0.10;0.10;;;;;;;;;;5121849;28;20043;-46
2023/09/22 12:56:02;;;;;;;0.10;0.10;;;;;;;;;;5122624;28;20047;-50
2023/09/22 12:58:28;;;;;;;0.10;0.10;;;;;;;;;;5123007;27;20157;-56
2023/09/22 13:00:55;;;;;;;0.10;0.10;;;;;;;;;;5124330;28;20050;-51
2023/09/22 13:03:21;;;;;;;0.10;0.10;;;;;;;;;;5124707;28;20058;-54
2023/09/22 13:05:46;;;;;;;0.20;0.20;;;;;;;;;;5106384;28;20058;-54
2023/09/22 13:08:12;;;;;;;0.10;0.10;;;;;;;;;;5105257;28;20066;-56
2023/09/22 13:10:40;;;;;;;0.10;0.10;;;;;;;;;;5112254;28;20047;-57
2023/09/22 13:13:05;;;;;;;;;;;;;;;;;;5127650;28;20039;-55
2023/09/22 13:15:33;;;;;;;0.20;0.20;;;;;;;;;;5126498;28;19925;-55
2023/09/22 13:17:58;;;;;;;0.10;0.10;;;;;;;;;;5125667;27;20061;-52
2023/09/22 13:20:24;;;;;;;0.10;0.10;;;;;;;;;;5126617;27;20447;-44
2023/09/22 13:22:49;;;;;;;0.10;0.10;;;;;;;;;;5122304;28;20043;-55
2023/09/22 13:25:15;;;;;;;0.10;0.10;;;;;;;;;;5116272;28;20035;-57
2023/09/22 13:27:41;;;;;;;0.10;0.10;;;;;;;;;;5114605;27;20043;-57
2023/09/22 13:30:08;;;;;;;0.10;0.10;;;;;;;;;;5113427;27;20073;-57
2023/09/22 13:32:34;;;;;;;0.10;0.10;;;;;;;;;;5123270;28;20074;-57
2023/09/22 13:34:59;;;;;;;0.10;0.10;;;;;;;;;;5123478;28;20146;-57
2023/09/22 13:37:25;;;;;;;0.10;0.10;;;;;;;;;;5125020;28;20070;-57
2023/09/22 13:39:52;;;;;;;0.10;0.10;;;;;;;;;;5106155;28;20120;-57
2023/09/22 13:42:18;;;;;;;0.10;0.10;;;;;;;;;;5123798;28;20078;-57
2023/09/22 13:44:43;;;;;;;0.10;0.10;;;;;;;;;;5126761;28;20043;-57
2023/09/22 13:47:09;;;;;;;0.10;0.10;;;;;;;;;;5127078;28;20055;-57
2023/09/22 13:49:37;;;;;;;0.10;0.10;;;;;;;;;;5125387;28;20047;-56
2023/09/22 13:52:03;;;;;;;0.10;0.10;;;;;;;;;;5126040;28;20100;-57
2023/09/22 13:54:29;;;;;;;0.10;0.10;;;;;;;;;;5125774;28;20043;-57
2023/09/22 13:56:54;;;;;;;0.10;0.10;;;;;;;;;;5125307;28;20403;-57
2023/09/22 13:59:20;;;;;;;0.10;0.10;;;;;;;;;;5124453;28;20086;-57
2023/09/22 14:01:46;;;;;;;0.10;0.10;;;;;;;;;;5125063;28;20062;-57
2023/09/22 14:04:11;;;;;;;0.10;0.10;;;;;;;;;;5120803;28;20051;-57
2023/09/22 14:06:37;;;;;;;0.10;0.10;;;;;;;;;;5106756;28;20054;-58
2023/09/22 14:09:04;;;;;;;0.10;0.10;;;;;;;;;;5104476;28;20043;-57
2023/09/22 14:11:30;;;;;;;0.20;0.20;;;;;;;;;;5117677;28;20057;-57
2023/09/22 14:13:56;;;;;;;0.10;0.10;;;;;;;;;;5127387;28;20453;-57
2023/09/22 14:16:24;;;;;;;0.10;0.10;;;;;;;;;;5126962;28;20089;-58
2023/09/22 14:18:53;;;;;;;0.10;0.10;;;;;;;;;;5125917;28;20131;-57
2023/09/22 14:21:19;;;;;;;0.10;0.10;;;;;;;;;;5125841;27;20087;-57
2023/09/22 14:23:44;;;;;;;0.10;0.10;;;;;;;;;;5130893;27;20050;-57
2023/09/22 14:26:11;;;;;;;0.10;0.10;;;;;;;;;;5126795;28;20434;-57
2023/09/22 14:28:36;;;;;;;0.10;0.10;;;;;;;;;;5123622;28;20088;-57
2023/09/22 14:31:04;;;;;;;0.10;0.10;;;;;;;;;;5126768;28;20263;-57
2023/09/22 14:33:29;;;;;;;0.10;0.10;;;;;;;;;;5126143;28;20479;-58
2023/09/22 14:36:03;;;;;;;0.10;0.10;;;;;;;;;;5126968;28;20047;-57
2023/09/22 14:38:28;;;;;;;0.10;0.10;;;;;;;;;;5126270;28;20043;-58
2023/09/22 14:40:54;;;;;;;0.10;0.10;;;;;;;;;;5125930;28;20476;-57
2023/09/22 14:43:20;;;;;;;0.10;0.10;;;;;;;;;;5125208;28;20051;-57
2023/09/22 14:45:45;;;;;;;0.10;0.10;;;;;;;;;;5126460;28;20055;-57